PWSweather.com
Personal Weather Stations
Station Observations
AS787
Cloppers Mill East, Germantown, MD 20874-2154

Cloppers Mill EastGermantown, MD 20874-2154

Lat: 39.1522, Lon: -77.2679

Elevation: 318

Station Type: 1-Wire

http://www.cloppermillweather.org/

High Low Average
Temperature 45.0°F7.2°C 29.0°F-1.7°C 38.2°F3.4°C
Dew Point 43.7°F6.5°C 27.2°F-2.7°C 36.6°F2.6°C
Winds Calm Calm Calm Calm Calm WSWCalm WSW
Wind Gusts -- -- --
Humidity 97% 84% 94%
Pressure 30.31 in1026.4 mb 30.01 in1016.3 mb -
Precipitation 0.00 in0.0 mm - -
Hour Temp Dew Point Humidity Winds Wind Gusts Pressure Precip Precip Rate Daily Precip Total
12:14 AM 37.4°F3.0°C 32.3°F0.2°C 81% Calm Calm -- 30.32 in1026.8 mb 0.00 in0.0 mm 0.00 in0.0 mm 0.00 in0.0 mm
12:44 AM 36.7°F2.6°C 32.1°F0.1°C 83% Calm Calm -- 30.31 in1026.4 mb 0.00 in0.0 mm 0.00 in0.0 mm 0.00 in0.0 mm
01:14 AM 35.1°F1.7°C 30.8°F-0.7°C 84% Calm Calm -- 30.31 in1026.4 mb 0.00 in0.0 mm 0.00 in0.0 mm 0.00 in0.0 mm
01:44 AM 33.6°F0.9°C 29.8°F-1.2°C 86% Calm Calm -- 30.30 in1026.1 mb 0.00 in0.0 mm 0.00 in0.0 mm 0.00 in0.0 mm
02:14 AM 32.2°F0.1°C 28.9°F-1.7°C 88% Calm Calm -- 30.30 in1026.1 mb 0.00 in0.0 mm 0.00 in0.0 mm 0.00 in0.0 mm
02:44 AM 31.2°F-0.4°C 28.4°F-2.0°C 89% Calm Calm -- 30.29 in1025.7 mb 0.00 in0.0 mm 0.00 in0.0 mm 0.00 in0.0 mm
03:14 AM 30.4°F-0.9°C 27.9°F-2.3°C 90% Calm Calm -- 30.28 in1025.4 mb 0.00 in0.0 mm 0.00 in0.0 mm 0.00 in0.0 mm
03:44 AM 30.1°F-1.1°C 27.8°F-2.3°C 91% Calm Calm -- 30.27 in1025.1 mb 0.00 in0.0 mm 0.00 in0.0 mm 0.00 in0.0 mm
04:14 AM 29.6°F-1.3°C 27.5°F-2.5°C 92% Calm Calm -- 30.26 in1024.7 mb 0.00 in0.0 mm 0.00 in0.0 mm 0.00 in0.0 mm
04:44 AM 29.2°F-1.6°C 27.2°F-2.7°C 92% Calm Calm -- 30.25 in1024.4 mb 0.00 in0.0 mm 0.00 in0.0 mm 0.00 in0.0 mm
05:14 AM 29.0°F-1.7°C 27.2°F-2.7°C 93% Calm Calm -- 30.25 in1024.4 mb 0.00 in0.0 mm 0.00 in0.0 mm 0.00 in0.0 mm
05:44 AM 29.4°F-1.4°C 27.7°F-2.4°C 93% Calm Calm -- 30.24 in1024.0 mb 0.00 in0.0 mm 0.00 in0.0 mm 0.00 in0.0 mm
06:14 AM 30.4°F-0.9°C 28.9°F-1.7°C 94% Calm Calm -- 30.24 in1024.0 mb 0.00 in0.0 mm 0.00 in0.0 mm 0.00 in0.0 mm
06:44 AM 30.8°F-0.7°C 29.3°F-1.5°C 94% Calm Calm -- 30.24 in1024.0 mb 0.00 in0.0 mm 0.00 in0.0 mm 0.00 in0.0 mm
07:14 AM 31.2°F-0.4°C 29.7°F-1.3°C 94% Calm Calm -- 30.24 in1024.0 mb 0.00 in0.0 mm 0.00 in0.0 mm 0.00 in0.0 mm
07:44 AM 31.3°F-0.4°C 29.8°F-1.2°C 94% Calm Calm -- 30.24 in1024.0 mb 0.00 in0.0 mm 0.00 in0.0 mm 0.00 in0.0 mm
08:14 AM 31.4°F-0.3°C 29.9°F-1.2°C 94% Calm Calm -- 30.24 in1024.0 mb 0.00 in0.0 mm 0.00 in0.0 mm 0.00 in0.0 mm
08:44 AM 31.7°F-0.2°C 30.2°F-1.0°C 94% Calm Calm -- 30.23 in1023.7 mb 0.00 in0.0 mm 0.00 in0.0 mm 0.00 in0.0 mm
09:14 AM 32.5°F0.3°C 30.9°F-0.6°C 94% Calm Calm -- 30.22 in1023.4 mb 0.00 in0.0 mm 0.00 in0.0 mm 0.00 in0.0 mm
09:44 AM 34.1°F1.2°C 32.8°F0.4°C 95% Calm Calm -- 30.23 in1023.7 mb 0.00 in0.0 mm 0.00 in0.0 mm 0.00 in0.0 mm
10:14 AM 36.3°F2.4°C 34.8°F1.6°C 94% Calm Calm -- 30.22 in1023.4 mb 0.00 in0.0 mm 0.00 in0.0 mm 0.00 in0.0 mm
10:44 AM 39.4°F4.1°C 37.9°F3.3°C 94% Calm Calm -- 30.22 in1023.4 mb 0.00 in0.0 mm 0.00 in0.0 mm 0.00 in0.0 mm
11:14 AM 40.8°F4.9°C 38.0°F3.3°C 90% Calm Calm -- 30.22 in1023.4 mb 0.00 in0.0 mm 0.00 in0.0 mm 0.00 in0.0 mm
11:44 AM 41.2°F5.1°C 39.0°F3.9°C 92% Calm Calm -- 30.21 in1023.0 mb 0.01 in0.3 mm 0.02 in0.5 mm 0.01 in0.3 mm
12:14 PM 41.6°F5.3°C 39.7°F4.3°C 93% Calm Calm -- 30.19 in1022.4 mb 0.00 in0.0 mm 0.00 in0.0 mm 0.01 in0.3 mm
12:44 PM 42.1°F5.6°C 40.5°F4.7°C 94% Calm Calm -- 30.18 in1022.0 mb 0.02 in0.5 mm 0.04 in1.0 mm 0.03 in0.8 mm
01:14 PM 42.5°F5.8°C 40.9°F4.9°C 94% Calm Calm -- 30.17 in1021.7 mb 0.02 in0.5 mm 0.00 in0.0 mm 0.03 in0.8 mm
01:44 PM 42.7°F5.9°C 41.1°F5.1°C 94% Calm Calm -- 30.14 in1020.7 mb 0.11 in2.8 mm 0.18 in4.6 mm 0.12 in3.0 mm
02:14 PM 43.5°F6.4°C 42.2°F5.7°C 95% Calm Calm -- 30.11 in1019.6 mb 0.01 in0.3 mm 0.00 in0.0 mm 0.12 in3.0 mm
02:44 PM 43.3°F6.3°C 42.0°F5.6°C 95% Calm Calm -- 30.09 in1019.0 mb 0.03 in0.8 mm 0.04 in1.0 mm 0.14 in3.6 mm
03:14 PM 44.0°F6.7°C 42.7°F5.9°C 95% Calm Calm -- 30.07 in1018.3 mb 0.01 in0.3 mm 0.00 in0.0 mm 0.14 in3.6 mm
03:44 PM 44.7°F7.1°C 43.7°F6.5°C 96% Calm Calm -- 30.07 in1018.3 mb 0.02 in0.5 mm 0.02 in0.5 mm 0.15 in3.8 mm
04:14 PM 45.0°F7.2°C 43.6°F6.4°C 95% Calm Calm -- 30.07 in1018.3 mb 0.01 in0.3 mm 0.00 in0.0 mm 0.15 in3.8 mm
04:44 PM 44.7°F7.1°C 43.4°F6.3°C 95% Calm Calm -- 30.07 in1018.3 mb 0.02 in0.5 mm 0.02 in0.5 mm 0.16 in4.1 mm
05:14 PM 44.4°F6.9°C 43.1°F6.2°C 95% Calm Calm -- 30.06 in1017.9 mb 0.01 in0.3 mm 0.00 in0.0 mm 0.16 in4.1 mm
05:44 PM 44.0°F6.7°C 42.8°F6.0°C 96% Calm Calm -- 30.07 in1018.3 mb 0.11 in2.8 mm 0.20 in5.1 mm 0.26 in6.6 mm
06:14 PM 44.2°F6.8°C 43.1°F6.2°C 96% Calm Calm -- 30.06 in1017.9 mb 0.01 in0.3 mm 0.00 in0.0 mm 0.26 in6.6 mm
06:44 PM 43.7°F6.5°C 42.6°F5.9°C 96% Calm Calm -- 30.06 in1017.9 mb 0.03 in0.8 mm 0.04 in1.0 mm 0.28 in7.1 mm
07:14 PM 42.8°F6.0°C 41.6°F5.3°C 96% Calm Calm -- 30.04 in1017.3 mb 0.00 in0.0 mm 0.00 in0.0 mm 0.28 in7.1 mm
07:44 PM 42.5°F5.8°C 41.4°F5.2°C 96% Calm Calm -- 30.05 in1017.6 mb 0.00 in0.0 mm 0.00 in0.0 mm 0.28 in7.1 mm
08:14 PM 42.2°F5.7°C 41.1°F5.1°C 96% Calm Calm -- 30.05 in1017.6 mb 0.00 in0.0 mm 0.00 in0.0 mm 0.28 in7.1 mm
08:44 PM 42.0°F5.6°C 41.0°F5.0°C 96% Calm Calm -- 30.06 in1017.9 mb 0.01 in0.3 mm 0.02 in0.5 mm 0.29 in7.4 mm
09:14 PM 41.9°F5.5°C 40.8°F4.9°C 96% Calm Calm -- 30.05 in1017.6 mb 0.01 in0.3 mm 0.00 in0.0 mm 0.29 in7.4 mm
09:44 PM 41.8°F5.4°C 40.7°F4.8°C 96% Calm Calm -- 30.03 in1016.9 mb 0.01 in0.3 mm 0.00 in0.0 mm 0.29 in7.4 mm
10:14 PM 41.7°F5.4°C 40.6°F4.8°C 96% Calm Calm -- 30.03 in1016.9 mb 0.00 in0.0 mm 0.00 in0.0 mm 0.29 in7.4 mm
10:44 PM 41.4°F5.2°C 40.4°F4.7°C 96% Calm Calm -- 30.03 in1016.9 mb 0.01 in0.3 mm 0.02 in0.5 mm 0.30 in7.6 mm
11:14 PM 41.3°F5.2°C 40.3°F4.6°C 96% Calm Calm -- 30.03 in1016.9 mb 0.01 in0.3 mm 0.00 in0.0 mm 0.30 in7.6 mm
11:44 PM 41.4°F5.2°C 40.3°F4.6°C 96% Calm Calm -- 30.03 in1016.9 mb 0.03 in0.8 mm 0.04 in1.0 mm 0.32 in8.1 mm